PWSweather.com
Personal Weather Stations
Station Observations
KVAGLENALL
West Henrico, Glen Allen, VA 23060-6503

West HenricoGlen Allen, VA 23060-6503

Lat: 37.6554, Lon: -77.5693

Elevation: 273

Station Type: Davis Vantage Pro II

www.glenallenweather.com

High Low Average
Temperature 52.1°F11.2°C 39.1°F3.9°C 45.1°F7.3°C
Dew Point 49.9°F9.9°C 34.6°F1.4°C 42.9°F6.1°C
Winds 7.0 mph 11.3 kmh Calm Calm 2.0 mph S3.2 kmh S
Wind Gusts 9.1 mph14.6 kmh -- 4.0 mph6.4 kmh
Humidity 97% 80% 92%
Pressure 30.51 in1033.2 mb 30.36 in1028.1 mb -
Precipitation 0.00 in0.0 mm - -
Hour Temp Dew Point Humidity Winds Wind Gusts Pressure Precip Precip Rate Daily Precip Total
12:00 AM 41.2°F5.1°C 35.5°F1.9°C 80% 5.0 mph SSE8.0 kmh SSE 8.1 mph13.0 kmh 30.49 in1032.5 mb 0.00 in0.0 mm 0.00 in0.0 mm 0.00 in0.0 mm
12:15 AM 41.2°F5.1°C 35.5°F1.9°C 80% 7.0 mph S11.3 kmh S 9.1 mph14.6 kmh 30.49 in1032.5 mb 0.00 in0.0 mm 0.00 in0.0 mm 0.00 in0.0 mm
12:30 AM 40.8°F4.9°C 35.1°F1.7°C 80% 3.0 mph SSE4.8 kmh SSE 9.1 mph14.6 kmh 30.49 in1032.5 mb 0.00 in0.0 mm 0.00 in0.0 mm 0.00 in0.0 mm
12:45 AM 40.4°F4.7°C 35.0°F1.7°C 81% 3.0 mph ESE4.8 kmh ESE 7.1 mph11.4 kmh 30.49 in1032.5 mb 0.00 in0.0 mm 0.00 in0.0 mm 0.00 in0.0 mm
01:00 AM 40.0°F4.4°C 34.7°F1.5°C 81% 7.0 mph SE11.3 kmh SE 7.1 mph11.4 kmh 30.49 in1032.5 mb 0.00 in0.0 mm 0.00 in0.0 mm 0.00 in0.0 mm
01:15 AM 40.0°F4.4°C 34.7°F1.5°C 81% 4.0 mph SE6.4 kmh SE 7.1 mph11.4 kmh 30.49 in1032.5 mb 0.00 in0.0 mm 0.00 in0.0 mm 0.00 in0.0 mm
01:30 AM 39.7°F4.3°C 34.7°F1.5°C 82% 3.0 mph SE4.8 kmh SE 8.1 mph13.0 kmh 30.50 in1032.8 mb 0.00 in0.0 mm 0.00 in0.0 mm 0.00 in0.0 mm
01:45 AM 39.6°F4.2°C 34.6°F1.4°C 82% 6.0 mph S9.7 kmh S 6.1 mph9.8 kmh 30.50 in1032.8 mb 0.00 in0.0 mm 0.00 in0.0 mm 0.00 in0.0 mm
02:00 AM 39.5°F4.2°C 34.8°F1.6°C 83% 1.0 mph SE1.6 kmh SE 4.0 mph6.4 kmh 30.49 in1032.5 mb 0.00 in0.0 mm 0.00 in0.0 mm 0.00 in0.0 mm
02:15 AM 39.3°F4.1°C 34.9°F1.6°C 84% 4.0 mph SE6.4 kmh SE 7.1 mph11.4 kmh 30.49 in1032.5 mb 0.00 in0.0 mm 0.00 in0.0 mm 0.00 in0.0 mm
02:30 AM 39.4°F4.1°C 35.0°F1.7°C 84% 2.0 mph SE3.2 kmh SE 6.1 mph9.8 kmh 30.48 in1032.2 mb 0.00 in0.0 mm 0.00 in0.0 mm 0.00 in0.0 mm
02:45 AM 39.3°F4.1°C 35.2°F1.8°C 85% 2.0 mph SSE3.2 kmh SSE 4.0 mph6.4 kmh 30.48 in1032.2 mb 0.00 in0.0 mm 0.00 in0.0 mm 0.00 in0.0 mm
03:00 AM 39.3°F4.1°C 35.2°F1.8°C 85% 5.0 mph SE8.0 kmh SE 9.1 mph14.6 kmh 30.48 in1032.2 mb 0.00 in0.0 mm 0.00 in0.0 mm 0.00 in0.0 mm
03:15 AM 39.4°F4.1°C 35.3°F1.8°C 85% 4.0 mph S6.4 kmh S 4.0 mph6.4 kmh 30.47 in1031.8 mb 0.00 in0.0 mm 0.00 in0.0 mm 0.00 in0.0 mm
03:30 AM 39.5°F4.2°C 35.4°F1.9°C 85% 1.0 mph SE1.6 kmh SE 5.1 mph8.2 kmh 30.46 in1031.5 mb 0.00 in0.0 mm 0.00 in0.0 mm 0.00 in0.0 mm
03:45 AM 39.4°F4.1°C 35.3°F1.8°C 85% 3.0 mph SE4.8 kmh SE 7.1 mph11.4 kmh 30.46 in1031.5 mb 0.00 in0.0 mm 0.00 in0.0 mm 0.00 in0.0 mm
04:00 AM 39.3°F4.1°C 35.5°F1.9°C 86% Calm Calm 7.1 mph11.4 kmh 30.46 in1031.5 mb 0.00 in0.0 mm 0.00 in0.0 mm 0.00 in0.0 mm
04:15 AM 39.1°F3.9°C 35.3°F1.8°C 86% 2.0 mph SE3.2 kmh SE 4.0 mph6.4 kmh 30.46 in1031.5 mb 0.00 in0.0 mm 0.00 in0.0 mm 0.00 in0.0 mm
04:30 AM 39.3°F4.1°C 35.8°F2.1°C 87% 4.0 mph SE6.4 kmh SE 4.0 mph6.4 kmh 30.46 in1031.5 mb 0.00 in0.0 mm 0.00 in0.0 mm 0.00 in0.0 mm
04:45 AM 39.5°F4.2°C 36.0°F2.2°C 87% Calm Calm 1.0 mph1.6 kmh 30.48 in1032.2 mb 0.00 in0.0 mm 0.00 in0.0 mm 0.00 in0.0 mm
05:00 AM 39.7°F4.3°C 36.2°F2.3°C 87% Calm Calm -- 30.48 in1032.2 mb 0.00 in0.0 mm 0.00 in0.0 mm 0.00 in0.0 mm
05:15 AM 39.8°F4.3°C 36.5°F2.5°C 88% Calm Calm -- 30.48 in1032.2 mb 0.00 in0.0 mm 0.00 in0.0 mm 0.00 in0.0 mm
05:30 AM 39.8°F4.3°C 36.8°F2.7°C 89% Calm Calm -- 30.48 in1032.2 mb 0.01 in0.3 mm 0.04 in1.0 mm 0.01 in0.3 mm
05:45 AM 39.6°F4.2°C 37.2°F2.9°C 91% Calm Calm -- 30.48 in1032.2 mb 0.03 in0.8 mm 0.08 in2.0 mm 0.03 in0.8 mm
06:00 AM 39.5°F4.2°C 37.6°F3.1°C 93% Calm Calm -- 30.48 in1032.2 mb 0.05 in1.3 mm 0.03 in0.8 mm 0.05 in1.3 mm
06:15 AM 39.5°F4.2°C 37.9°F3.3°C 94% Calm Calm -- 30.49 in1032.5 mb 0.07 in1.8 mm 0.08 in2.0 mm 0.07 in1.8 mm
06:30 AM 39.5°F4.2°C 38.2°F3.4°C 95% Calm Calm -- 30.50 in1032.8 mb 0.07 in1.8 mm 0.00 in0.0 mm 0.07 in1.8 mm
06:45 AM 39.5°F4.2°C 38.2°F3.4°C 95% 1.0 mph NNW1.6 kmh NNW 3.0 mph4.8 kmh 30.51 in1033.2 mb 0.09 in2.3 mm 0.08 in2.0 mm 0.09 in2.3 mm
07:00 AM 39.5°F4.2°C 38.2°F3.4°C 95% Calm Calm -- 30.50 in1032.8 mb 0.06 in1.5 mm 0.00 in0.0 mm 0.09 in2.3 mm
07:15 AM 39.6°F4.2°C 38.3°F3.5°C 95% Calm Calm -- 30.50 in1032.8 mb 0.07 in1.8 mm 0.04 in1.0 mm 0.10 in2.5 mm
07:30 AM 39.5°F4.2°C 38.2°F3.4°C 95% Calm Calm 2.0 mph3.2 kmh 30.49 in1032.5 mb 0.05 in1.3 mm 0.00 in0.0 mm 0.10 in2.5 mm
07:45 AM 39.7°F4.3°C 38.4°F3.6°C 95% Calm Calm 2.0 mph3.2 kmh 30.50 in1032.8 mb 0.06 in1.5 mm 0.04 in1.0 mm 0.11 in2.8 mm
08:00 AM 39.9°F4.4°C 38.6°F3.7°C 95% 1.0 mph SE1.6 kmh SE 1.0 mph1.6 kmh 30.50 in1032.8 mb 0.03 in0.8 mm 0.00 in0.0 mm 0.11 in2.8 mm
08:15 AM 40.2°F4.6°C 38.9°F3.8°C 95% 1.0 mph S1.6 kmh S 5.1 mph8.2 kmh 30.49 in1032.5 mb 0.03 in0.8 mm 0.00 in0.0 mm 0.11 in2.8 mm
08:30 AM 40.6°F4.8°C 39.3°F4.1°C 95% 4.0 mph S6.4 kmh S 5.1 mph8.2 kmh 30.49 in1032.5 mb 0.01 in0.3 mm 0.00 in0.0 mm 0.11 in2.8 mm
08:45 AM 40.8°F4.9°C 39.5°F4.2°C 95% 3.0 mph S4.8 kmh S 3.0 mph4.8 kmh 30.50 in1032.8 mb 0.01 in0.3 mm 0.00 in0.0 mm 0.11 in2.8 mm
09:00 AM 41.0°F5.0°C 39.7°F4.3°C 95% Calm Calm 2.0 mph3.2 kmh 30.49 in1032.5 mb 0.00 in0.0 mm 0.00 in0.0 mm 0.11 in2.8 mm
09:15 AM 41.4°F5.2°C 39.8°F4.3°C 94% 2.0 mph S3.2 kmh S 3.0 mph4.8 kmh 30.49 in1032.5 mb 0.00 in0.0 mm 0.00 in0.0 mm 0.11 in2.8 mm
09:30 AM 41.8°F5.4°C 40.2°F4.6°C 94% 2.0 mph SSW3.2 kmh SSW 3.0 mph4.8 kmh 30.49 in1032.5 mb 0.00 in0.0 mm 0.00 in0.0 mm 0.11 in2.8 mm
09:45 AM 42.0°F5.6°C 40.4°F4.7°C 94% 3.0 mph S4.8 kmh S 6.1 mph9.8 kmh 30.49 in1032.5 mb 0.00 in0.0 mm 0.00 in0.0 mm 0.11 in2.8 mm
10:00 AM 42.4°F5.8°C 40.8°F4.9°C 94% 1.0 mph S1.6 kmh S 3.0 mph4.8 kmh 30.49 in1032.5 mb 0.00 in0.0 mm 0.00 in0.0 mm 0.11 in2.8 mm
10:15 AM 42.3°F5.7°C 40.7°F4.8°C 94% 3.0 mph S4.8 kmh S 4.0 mph6.4 kmh 30.48 in1032.2 mb 0.00 in0.0 mm 0.00 in0.0 mm 0.11 in2.8 mm
10:30 AM 42.6°F5.9°C 41.0°F5.0°C 94% 1.0 mph S1.6 kmh S 2.0 mph3.2 kmh 30.48 in1032.2 mb 0.00 in0.0 mm 0.00 in0.0 mm 0.11 in2.8 mm
10:45 AM 42.7°F5.9°C 41.1°F5.1°C 94% 1.0 mph SSW1.6 kmh SSW 1.0 mph1.6 kmh 30.48 in1032.2 mb 0.00 in0.0 mm 0.00 in0.0 mm 0.11 in2.8 mm
11:00 AM 43.1°F6.2°C 41.8°F5.4°C 95% 2.0 mph SSW3.2 kmh SSW 3.0 mph4.8 kmh 30.48 in1032.2 mb 0.01 in0.3 mm 0.01 in0.3 mm 0.12 in3.0 mm
11:15 AM 43.5°F6.4°C 42.2°F5.7°C 95% 4.0 mph SW6.4 kmh SW 4.0 mph6.4 kmh 30.47 in1031.8 mb 0.01 in0.3 mm 0.00 in0.0 mm 0.12 in3.0 mm
11:30 AM 43.9°F6.6°C 42.9°F6.1°C 96% 2.0 mph SSW3.2 kmh SSW 2.0 mph3.2 kmh 30.47 in1031.8 mb 0.01 in0.3 mm 0.00 in0.0 mm 0.12 in3.0 mm
11:45 AM 43.9°F6.6°C 42.6°F5.9°C 95% Calm Calm 4.0 mph6.4 kmh 30.47 in1031.8 mb 0.01 in0.3 mm 0.00 in0.0 mm 0.12 in3.0 mm
12:00 PM 44.2°F6.8°C 42.9°F6.1°C 95% Calm Calm 1.0 mph1.6 kmh 30.46 in1031.5 mb 0.00 in0.0 mm 0.00 in0.0 mm 0.12 in3.0 mm
12:15 PM 44.7°F7.1°C 43.7°F6.5°C 96% 2.0 mph WSW3.2 kmh WSW 4.0 mph6.4 kmh 30.45 in1031.2 mb 0.00 in0.0 mm 0.00 in0.0 mm 0.12 in3.0 mm
12:30 PM 44.9°F7.2°C 43.6°F6.4°C 95% 2.0 mph W3.2 kmh W 4.0 mph6.4 kmh 30.44 in1030.8 mb 0.00 in0.0 mm 0.00 in0.0 mm 0.12 in3.0 mm
12:45 PM 45.1°F7.3°C 43.5°F6.4°C 94% 2.0 mph SSW3.2 kmh SSW 3.0 mph4.8 kmh 30.43 in1030.5 mb 0.00 in0.0 mm 0.00 in0.0 mm 0.12 in3.0 mm
01:00 PM 45.8°F7.7°C 44.5°F6.9°C 95% Calm Calm 1.0 mph1.6 kmh 30.42 in1030.1 mb 0.00 in0.0 mm 0.00 in0.0 mm 0.12 in3.0 mm
01:15 PM 46.3°F7.9°C 44.7°F7.1°C 94% Calm Calm 2.0 mph3.2 kmh 30.42 in1030.1 mb 0.00 in0.0 mm 0.00 in0.0 mm 0.12 in3.0 mm
01:30 PM 46.9°F8.3°C 45.3°F7.4°C 94% Calm Calm 1.0 mph1.6 kmh 30.42 in1030.1 mb 0.00 in0.0 mm 0.00 in0.0 mm 0.12 in3.0 mm
01:45 PM 47.1°F8.4°C 45.5°F7.5°C 94% 1.0 mph N1.6 kmh N 2.0 mph3.2 kmh 30.41 in1029.8 mb 0.00 in0.0 mm 0.00 in0.0 mm 0.12 in3.0 mm
02:00 PM 47.3°F8.5°C 45.4°F7.4°C 93% Calm Calm -- 30.41 in1029.8 mb 0.00 in0.0 mm 0.00 in0.0 mm 0.12 in3.0 mm
02:15 PM 47.8°F8.8°C 45.9°F7.7°C 93% Calm Calm -- 30.40 in1029.5 mb 0.00 in0.0 mm 0.00 in0.0 mm 0.12 in3.0 mm
02:30 PM 48.2°F9.0°C 46.6°F8.1°C 94% 3.0 mph SSE4.8 kmh SSE 3.0 mph4.8 kmh 30.40 in1029.5 mb 0.00 in0.0 mm 0.00 in0.0 mm 0.12 in3.0 mm
02:45 PM 48.3°F9.1°C 46.7°F8.2°C 94% 2.0 mph S3.2 kmh S 4.0 mph6.4 kmh 30.39 in1029.1 mb 0.00 in0.0 mm 0.00 in0.0 mm 0.12 in3.0 mm
03:00 PM 48.9°F9.4°C 47.3°F8.5°C 94% 3.0 mph SSW4.8 kmh SSW 4.0 mph6.4 kmh 30.38 in1028.8 mb 0.00 in0.0 mm 0.00 in0.0 mm 0.12 in3.0 mm
03:15 PM 49.2°F9.6°C 47.6°F8.7°C 94% 2.0 mph S3.2 kmh S 3.0 mph4.8 kmh 30.38 in1028.8 mb 0.00 in0.0 mm 0.00 in0.0 mm 0.12 in3.0 mm
03:30 PM 49.8°F9.9°C 47.8°F8.8°C 93% 4.0 mph SSW6.4 kmh SSW 4.0 mph6.4 kmh 30.38 in1028.8 mb 0.00 in0.0 mm 0.00 in0.0 mm 0.12 in3.0 mm
03:45 PM 50.2°F10.1°C 48.2°F9.0°C 93% 2.0 mph S3.2 kmh S 5.1 mph8.2 kmh 30.38 in1028.8 mb 0.00 in0.0 mm 0.00 in0.0 mm 0.12 in3.0 mm
04:00 PM 50.4°F10.2°C 48.4°F9.1°C 93% 1.0 mph SSE1.6 kmh SSE 2.0 mph3.2 kmh 30.37 in1028.4 mb 0.00 in0.0 mm 0.00 in0.0 mm 0.12 in3.0 mm
04:15 PM 50.6°F10.3°C 48.6°F9.2°C 93% 2.0 mph S3.2 kmh S 5.1 mph8.2 kmh 30.37 in1028.4 mb 0.00 in0.0 mm 0.00 in0.0 mm 0.12 in3.0 mm
04:30 PM 51.1°F10.6°C 49.1°F9.5°C 93% Calm Calm 2.0 mph3.2 kmh 30.36 in1028.1 mb 0.00 in0.0 mm 0.00 in0.0 mm 0.12 in3.0 mm
04:45 PM 51.3°F10.7°C 49.3°F9.6°C 93% 2.0 mph SSW3.2 kmh SSW 3.0 mph4.8 kmh 30.37 in1028.4 mb 0.00 in0.0 mm 0.00 in0.0 mm 0.12 in3.0 mm
05:00 PM 51.9°F11.1°C 49.9°F9.9°C 93% 4.0 mph SSW6.4 kmh SSW 4.0 mph6.4 kmh 30.38 in1028.8 mb 0.00 in0.0 mm 0.00 in0.0 mm 0.12 in3.0 mm
05:15 PM 52.0°F11.1°C 49.7°F9.8°C 92% 3.0 mph S4.8 kmh S 7.1 mph11.4 kmh 30.37 in1028.4 mb 0.00 in0.0 mm 0.00 in0.0 mm 0.12 in3.0 mm
05:30 PM 52.1°F11.2°C 49.8°F9.9°C 92% 5.0 mph SSW8.0 kmh SSW 5.1 mph8.2 kmh 30.37 in1028.4 mb 0.00 in0.0 mm 0.00 in0.0 mm 0.12 in3.0 mm
05:45 PM 51.7°F10.9°C 49.7°F9.8°C 93% 3.0 mph S4.8 kmh S 3.0 mph4.8 kmh 30.38 in1028.8 mb 0.00 in0.0 mm 0.00 in0.0 mm 0.12 in3.0 mm
06:00 PM 51.7°F10.9°C 49.7°F9.8°C 93% 4.0 mph SSW6.4 kmh SSW 5.1 mph8.2 kmh 30.37 in1028.4 mb 0.00 in0.0 mm 0.00 in0.0 mm 0.12 in3.0 mm
06:15 PM 51.3°F10.7°C 49.6°F9.8°C 94% 2.0 mph SW3.2 kmh SW 5.1 mph8.2 kmh 30.39 in1029.1 mb 0.00 in0.0 mm 0.00 in0.0 mm 0.12 in3.0 mm
06:30 PM 51.4°F10.8°C 49.7°F9.8°C 94% 1.0 mph SE1.6 kmh SE 3.0 mph4.8 kmh 30.38 in1028.8 mb 0.00 in0.0 mm 0.00 in0.0 mm 0.12 in3.0 mm
06:45 PM 51.5°F10.8°C 49.8°F9.9°C 94% 1.0 mph S1.6 kmh S 2.0 mph3.2 kmh 30.39 in1029.1 mb 0.00 in0.0 mm 0.00 in0.0 mm 0.12 in3.0 mm
07:00 PM 51.5°F10.8°C 49.8°F9.9°C 94% 1.0 mph S1.6 kmh S 4.0 mph6.4 kmh 30.39 in1029.1 mb 0.00 in0.0 mm 0.00 in0.0 mm 0.12 in3.0 mm
07:15 PM 51.4°F10.8°C 49.7°F9.8°C 94% 1.0 mph SE1.6 kmh SE 4.0 mph6.4 kmh 30.38 in1028.8 mb 0.00 in0.0 mm 0.00 in0.0 mm 0.12 in3.0 mm
07:30 PM 51.3°F10.7°C 49.6°F9.8°C 94% 2.0 mph SSW3.2 kmh SSW 5.1 mph8.2 kmh 30.39 in1029.1 mb 0.00 in0.0 mm 0.00 in0.0 mm 0.12 in3.0 mm
07:45 PM 51.2°F10.7°C 49.5°F9.7°C 94% 5.0 mph SSW8.0 kmh SSW 5.1 mph8.2 kmh 30.38 in1028.8 mb 0.00 in0.0 mm 0.00 in0.0 mm 0.12 in3.0 mm
08:00 PM 51.2°F10.7°C 49.5°F9.7°C 94% 2.0 mph S3.2 kmh S 5.1 mph8.2 kmh 30.39 in1029.1 mb 0.00 in0.0 mm 0.00 in0.0 mm 0.12 in3.0 mm
08:15 PM 51.1°F10.6°C 49.7°F9.8°C 95% 2.0 mph SW3.2 kmh SW 3.0 mph4.8 kmh 30.39 in1029.1 mb 0.00 in0.0 mm 0.00 in0.0 mm 0.12 in3.0 mm
08:30 PM 51.0°F10.6°C 49.6°F9.8°C 95% 1.0 mph S1.6 kmh S 5.1 mph8.2 kmh 30.39 in1029.1 mb 0.00 in0.0 mm 0.00 in0.0 mm 0.12 in3.0 mm
08:45 PM 50.9°F10.5°C 49.5°F9.7°C 95% 2.0 mph S3.2 kmh S 5.1 mph8.2 kmh 30.40 in1029.5 mb 0.00 in0.0 mm 0.00 in0.0 mm 0.12 in3.0 mm
09:00 PM 50.9°F10.5°C 49.5°F9.7°C 95% 5.0 mph S8.0 kmh S 5.1 mph8.2 kmh 30.39 in1029.1 mb 0.00 in0.0 mm 0.00 in0.0 mm 0.12 in3.0 mm
09:15 PM 50.7°F10.4°C 49.3°F9.6°C 95% 1.0 mph SSW1.6 kmh SSW 4.0 mph6.4 kmh 30.40 in1029.5 mb 0.00 in0.0 mm 0.00 in0.0 mm 0.12 in3.0 mm
09:30 PM 50.4°F10.2°C 49.0°F9.4°C 95% 3.0 mph S4.8 kmh S 4.0 mph6.4 kmh 30.40 in1029.5 mb 0.00 in0.0 mm 0.00 in0.0 mm 0.12 in3.0 mm
09:45 PM 50.1°F10.1°C 49.0°F9.4°C 96% Calm Calm -- 30.39 in1029.1 mb 0.00 in0.0 mm 0.00 in0.0 mm 0.12 in3.0 mm
10:00 PM 49.8°F9.9°C 48.7°F9.3°C 96% 1.0 mph SW1.6 kmh SW 2.0 mph3.2 kmh 30.39 in1029.1 mb 0.00 in0.0 mm 0.00 in0.0 mm 0.12 in3.0 mm
10:15 PM 50.1°F10.1°C 49.2°F9.6°C 97% 1.0 mph SSW1.6 kmh SSW 5.1 mph8.2 kmh 30.40 in1029.5 mb 0.00 in0.0 mm 0.00 in0.0 mm 0.12 in3.0 mm
10:30 PM 50.4°F10.2°C 49.3°F9.6°C 96% 1.0 mph S1.6 kmh S 3.0 mph4.8 kmh 30.40 in1029.5 mb 0.00 in0.0 mm 0.00 in0.0 mm 0.12 in3.0 mm
10:45 PM 50.6°F10.3°C 49.5°F9.7°C 96% Calm Calm 1.0 mph1.6 kmh 30.40 in1029.5 mb 0.00 in0.0 mm 0.00 in0.0 mm 0.12 in3.0 mm
11:00 PM 50.8°F10.4°C 49.7°F9.8°C 96% 1.0 mph S1.6 kmh S 3.0 mph4.8 kmh 30.40 in1029.5 mb 0.00 in0.0 mm 0.00 in0.0 mm 0.12 in3.0 mm
11:15 PM 50.9°F10.5°C 49.8°F9.9°C 96% 3.0 mph S4.8 kmh S 4.0 mph6.4 kmh 30.39 in1029.1 mb 0.00 in0.0 mm 0.00 in0.0 mm 0.12 in3.0 mm
11:30 PM 50.8°F10.4°C 49.7°F9.8°C 96% 2.0 mph S3.2 kmh S 5.1 mph8.2 kmh 30.39 in1029.1 mb 0.00 in0.0 mm 0.00 in0.0 mm 0.12 in3.0 mm
11:45 PM 51.0°F10.6°C 49.9°F9.9°C 96% 5.0 mph S8.0 kmh S 6.1 mph9.8 kmh 30.38 in1028.8 mb 0.00 in0.0 mm 0.00 in0.0 mm 0.12 in3.0 mm